Time;durP1;ratioP1;P1;durP2;ratioP2;P2;SDS_P1;SDS_P2;PMS_P1;PMS_P2;Temp;Humidity;BMP_temperature;BMP_pressure;BME280_temperature;BME280_humidity;BME280_pressure;Samples;Min_cycle;Max_cycle;Signal;HPM_P1;HPM_P2
2021/12/09 00:01:26;;;;;;;10.20;5.03;;;3.20;99.90;;;;;;4971560;28;20108;-82
2021/12/09 00:04:06;;;;;;;10.52;5.35;;;3.20;99.90;;;;;;4970271;28;20028;-82
2021/12/09 00:06:32;;;;;;;11.13;5.07;;;3.20;99.90;;;;;;4972208;28;20035;-81
2021/12/09 00:09:02;;;;;;;11.60;4.78;;;3.20;99.90;;;;;;4968174;28;20031;-81
2021/12/09 00:11:29;;;;;;;11.65;5.32;;;3.20;99.90;;;;;;4961522;28;20050;-82
2021/12/09 00:13:56;;;;;;;8.90;4.43;;;3.20;99.90;;;;;;4971862;28;20049;-82
2021/12/09 00:16:21;;;;;;;11.30;4.68;;;3.30;99.90;;;;;;4971249;28;20018;-81
2021/12/09 00:18:47;;;;;;;12.77;5.05;;;3.30;99.90;;;;;;4972053;28;20483;-81
2021/12/09 00:21:13;;;;;;;7.95;3.63;;;3.30;99.90;;;;;;4975494;28;20106;-81
2021/12/09 00:23:39;;;;;;;9.18;3.65;;;3.30;99.90;;;;;;4965144;28;20371;-80
2021/12/09 00:26:05;;;;;;;7.85;3.40;;;3.30;99.90;;;;;;4971974;28;20045;-81
2021/12/09 00:28:31;;;;;;;9.25;3.88;;;3.30;99.90;;;;;;4966596;28;20031;-81
2021/12/09 00:30:57;;;;;;;6.63;2.88;;;3.40;99.90;;;;;;4965599;28;20027;-81
2021/12/09 00:33:23;;;;;;;8.75;2.70;;;3.30;99.90;;;;;;4965921;28;20041;-81
2021/12/09 00:35:57;;;;;;;7.32;2.58;;;3.30;99.90;;;;;;4972037;28;20034;-81
2021/12/09 00:38:34;;;;;;;7.80;2.92;;;3.20;99.90;;;;;;4969593;28;20027;-80
2021/12/09 00:41:03;;;;;;;9.57;3.03;;;3.10;99.90;;;;;;4962763;28;20102;-81
2021/12/09 00:43:29;;;;;;;6.15;2.33;;;3.10;99.90;;;;;;4972116;28;20479;-81
2021/12/09 00:45:57;;;;;;;5.10;2.30;;;3.10;99.90;;;;;;4972757;28;20094;-81
2021/12/09 00:48:24;;;;;;;8.48;2.17;;;3.10;99.90;;;;;;4972099;28;20027;-81
2021/12/09 00:50:49;;;;;;;7.82;2.97;;;3.10;99.90;;;;;;4970796;28;20491;-81
2021/12/09 00:53:15;;;;;;;5.20;2.72;;;3.10;99.90;;;;;;4970642;28;20037;-81
2021/12/09 00:55:41;;;;;;;4.80;2.30;;;3.10;99.90;;;;;;4972107;28;20113;-81
2021/12/09 00:58:06;;;;;;;6.45;2.22;;;3.00;99.90;;;;;;4972951;28;20034;-81
2021/12/09 01:00:32;;;;;;;6.60;2.70;;;3.10;99.90;;;;;;4971865;28;20107;-82
2021/12/09 01:02:59;;;;;;;13.73;5.35;;;3.00;99.90;;;;;;4966040;28;20043;-80
2021/12/09 01:05:27;;;;;;;6.30;2.78;;;3.00;99.90;;;;;;4968762;28;20039;-81
2021/12/09 01:07:53;;;;;;;6.22;2.85;;;3.00;99.90;;;;;;4971846;28;20035;-81
2021/12/09 01:10:19;;;;;;;6.97;2.78;;;2.90;99.90;;;;;;4963364;28;20027;-80
2021/12/09 01:12:45;;;;;;;8.63;3.42;;;2.90;99.90;;;;;;4966763;28;22602;-80
2021/12/09 01:15:14;;;;;;;8.70;2.90;;;2.90;99.90;;;;;;4968034;28;20034;-81
2021/12/09 01:17:40;;;;;;;7.97;2.85;;;2.80;99.90;;;;;;4968218;28;20030;-81
2021/12/09 01:20:09;;;;;;;7.82;3.00;;;2.80;99.90;;;;;;4970974;28;20033;-81
2021/12/09 01:22:39;;;;;;;7.15;2.97;;;2.80;99.90;;;;;;4981340;28;20054;-80
2021/12/09 01:25:07;;;;;;;12.02;3.38;;;2.80;99.90;;;;;;4982907;28;20552;-80
2021/12/09 01:27:35;;;;;;;6.82;2.83;;;2.70;99.90;;;;;;4971322;28;20030;-81
2021/12/09 01:30:08;;;;;;;6.13;3.03;;;2.70;99.90;;;;;;4970285;28;21193;-81
2021/12/09 01:32:34;;;;;;;5.80;2.97;;;2.70;99.90;;;;;;4966811;28;20408;-81
2021/12/09 01:35:00;;;;;;;7.13;3.30;;;2.60;99.90;;;;;;4967426;28;20034;-80
2021/12/09 01:37:26;;;;;;;5.78;3.20;;;2.60;99.90;;;;;;4967592;28;20031;-80
2021/12/09 01:39:51;;;;;;;8.27;3.42;;;2.60;99.90;;;;;;4975686;28;20029;-81
2021/12/09 01:42:17;;;;;;;7.45;3.63;;;2.60;99.90;;;;;;4960097;28;20027;-81
2021/12/09 01:44:43;;;;;;;6.65;3.35;;;2.60;99.90;;;;;;4980345;28;20038;-82
2021/12/09 01:47:09;;;;;;;8.90;3.20;;;2.60;99.90;;;;;;4982973;28;20066;-81
2021/12/09 01:49:35;;;;;;;8.27;3.50;;;2.60;99.90;;;;;;4980024;28;20066;-81
2021/12/09 01:52:00;;;;;;;6.45;3.33;;;2.60;99.90;;;;;;4968593;28;20094;-81
2021/12/09 01:54:26;;;;;;;6.55;3.47;;;2.60;99.90;;;;;;4970538;28;20026;-81
2021/12/09 01:56:52;;;;;;;9.13;3.45;;;2.60;99.90;;;;;;4972307;28;20027;-81
2021/12/09 01:59:18;;;;;;;7.60;3.75;;;2.60;99.90;;;;;;4968071;28;20031;-82
2021/12/09 02:01:44;;;;;;;7.40;3.85;;;2.60;99.90;;;;;;4971032;28;20035;-81
2021/12/09 02:04:11;;;;;;;6.13;3.35;;;2.60;99.90;;;;;;4969265;28;20023;-82
2021/12/09 02:06:42;;;;;;;5.82;3.13;;;2.60;99.90;;;;;;4961674;28;20035;-81
2021/12/09 02:09:15;;;;;;;5.97;2.92;;;2.60;99.90;;;;;;4966077;28;20106;-80
2021/12/09 02:11:41;;;;;;;6.07;3.35;;;2.60;99.90;;;;;;4961424;28;20443;-82
2021/12/09 02:14:07;;;;;;;6.47;3.38;;;2.60;99.90;;;;;;4959990;28;20050;-81
2021/12/09 02:16:34;;;;;;;9.93;4.10;;;2.60;99.90;;;;;;4958232;28;20023;-81
2021/12/09 02:19:00;;;;;;;6.57;4.13;;;2.60;99.90;;;;;;4978953;28;20069;-81
2021/12/09 02:21:29;;;;;;;8.30;4.35;;;2.60;99.90;;;;;;4966206;28;20368;-80
2021/12/09 02:24:04;;;;;;;6.28;3.78;;;2.60;99.90;;;;;;4965294;28;20376;-81
2021/12/09 02:26:36;;;;;;;6.63;3.35;;;2.70;99.90;;;;;;4967787;28;20027;-81
2021/12/09 02:29:04;;;;;;;7.20;3.80;;;2.60;99.90;;;;;;4962511;28;20139;-81
2021/12/09 02:31:31;;;;;;;9.43;3.63;;;2.60;99.90;;;;;;4962219;28;20069;-80
2021/12/09 02:33:58;;;;;;;7.55;3.28;;;2.70;99.90;;;;;;4962794;28;20023;-80
2021/12/09 02:36:25;;;;;;;5.95;2.92;;;2.70;99.90;;;;;;4978530;23;21228;-69
2021/12/09 02:38:51;;;;;;;6.80;3.50;;;2.70;99.90;;;;;;4950174;28;20039;-69
2021/12/09 02:41:20;;;;;;;7.70;3.20;;;2.70;99.90;;;;;;4948021;28;20066;-69
2021/12/09 02:43:55;;;;;;;5.97;2.72;;;2.70;99.90;;;;;;4953260;28;20146;-69
2021/12/09 02:46:23;;;;;;;4.25;2.53;;;2.70;99.90;;;;;;4950978;28;20057;-69
2021/12/09 02:48:52;;;;;;;7.50;2.70;;;2.70;99.90;;;;;;4951656;28;20019;-69
2021/12/09 02:51:18;;;;;;;7.45;2.65;;;2.70;99.90;;;;;;4951410;28;20469;-69
2021/12/09 02:53:44;;;;;;;7.47;3.03;;;2.70;99.90;;;;;;4951003;28;20086;-69
2021/12/09 02:56:11;;;;;;;7.05;2.67;;;2.70;99.90;;;;;;4951476;28;20023;-69
2021/12/09 02:58:37;;;;;;;7.43;3.13;;;2.70;99.90;;;;;;4950570;28;20110;-69
2021/12/09 03:01:14;;;;;;;8.15;3.90;;;2.70;99.90;;;;;;4949771;28;20134;-69
2021/12/09 03:03:48;;;;;;;7.38;3.22;;;2.80;99.90;;;;;;4953569;28;20039;-70
2021/12/09 03:06:15;;;;;;;6.82;3.33;;;2.80;99.90;;;;;;4951735;28;20142;-70
2021/12/09 03:08:42;;;;;;;6.47;2.97;;;2.80;99.90;;;;;;4949469;28;20027;-70
2021/12/09 03:11:12;;;;;;;6.80;3.08;;;2.90;99.90;;;;;;4942388;28;20035;-70
2021/12/09 03:13:39;;;;;;;6.65;3.20;;;2.90;99.90;;;;;;4952160;28;20039;-70
2021/12/09 03:16:05;;;;;;;8.00;3.58;;;2.90;99.90;;;;;;4953639;28;20114;-70
2021/12/09 03:18:43;;;;;;;7.63;3.45;;;2.90;99.90;;;;;;4952780;28;20630;-70
2021/12/09 03:21:19;;;;;;;5.93;3.22;;;2.90;99.90;;;;;;4952754;28;20027;-70
2021/12/09 03:23:45;;;;;;;7.55;3.50;;;2.90;99.90;;;;;;4948172;28;20055;-70
2021/12/09 03:26:13;;;;;;;9.45;4.25;;;2.90;99.90;;;;;;4948530;28;20095;-70
2021/12/09 03:28:38;;;;;;;13.18;4.22;;;2.90;99.90;;;;;;4947001;28;20089;-70
2021/12/09 03:31:04;;;;;;;8.10;4.03;;;2.90;99.90;;;;;;4950517;28;21407;-70
2021/12/09 03:33:31;;;;;;;9.07;4.22;;;2.90;99.90;;;;;;4953310;28;20451;-70
2021/12/09 03:36:04;;;;;;;9.85;4.53;;;2.90;99.90;;;;;;4950524;28;20032;-70
2021/12/09 03:38:30;;;;;;;9.05;4.03;;;2.90;99.90;;;;;;4949731;28;20031;-70
2021/12/09 03:40:56;;;;;;;11.70;5.43;;;3.00;99.90;;;;;;4949315;28;20093;-70
2021/12/09 03:43:23;;;;;;;12.57;5.28;;;3.00;99.90;;;;;;4944737;28;20077;-69
2021/12/09 03:45:50;;;;;;;8.55;4.03;;;3.00;99.90;;;;;;4950976;28;20031;-70
2021/12/09 03:48:16;;;;;;;11.95;4.13;;;3.00;99.90;;;;;;4950919;28;20070;-70
2021/12/09 03:50:44;;;;;;;12.00;5.22;;;3.00;99.90;;;;;;4948877;28;20057;-70
2021/12/09 03:53:10;;;;;;;10.45;4.78;;;3.10;99.90;;;;;;4950035;28;20038;-70
2021/12/09 03:55:35;;;;;;;8.30;4.53;;;3.10;99.90;;;;;;4952519;28;20028;-70
2021/12/09 03:58:01;;;;;;;8.80;4.72;;;3.10;99.90;;;;;;4951389;28;20035;-70
2021/12/09 04:00:28;;;;;;;11.23;5.95;;;3.10;99.90;;;;;;4951974;28;20377;-70
2021/12/09 04:02:54;;;;;;;13.80;5.28;;;3.10;99.90;;;;;;4950046;29;20338;-69
2021/12/09 04:05:20;;;;;;;9.88;5.28;;;3.10;99.90;;;;;;4952493;28;20027;-69
2021/12/09 04:07:46;;;;;;;10.43;5.47;;;3.20;99.90;;;;;;4950475;28;20378;-70
2021/12/09 04:10:13;;;;;;;9.98;5.53;;;3.20;99.90;;;;;;4943687;28;20039;-69
2021/12/09 04:12:38;;;;;;;8.20;4.82;;;3.20;99.90;;;;;;4950223;28;20102;-70
2021/12/09 04:15:05;;;;;;;10.43;5.25;;;3.20;99.90;;;;;;4947778;28;20119;-69
2021/12/09 04:17:31;;;;;;;9.10;4.82;;;3.20;99.90;;;;;;4953108;28;20035;-69
2021/12/09 04:19:57;;;;;;;15.82;5.93;;;3.20;99.90;;;;;;4950525;28;20070;-69
2021/12/09 04:22:23;;;;;;;8.70;4.85;;;3.30;99.90;;;;;;4948027;28;20035;-69
2021/12/09 04:24:51;;;;;;;13.43;5.00;;;3.30;99.90;;;;;;4950090;29;20050;-70
2021/12/09 04:27:18;;;;;;;9.13;4.28;;;3.20;99.90;;;;;;4952320;28;20035;-69
2021/12/09 04:29:44;;;;;;;10.38;5.38;;;3.20;99.90;;;;;;4948275;28;20392;-69
2021/12/09 04:32:10;;;;;;;15.80;5.25;;;3.20;99.90;;;;;;4950716;28;20034;-69
2021/12/09 04:34:36;;;;;;;10.10;4.82;;;3.20;99.90;;;;;;4950334;28;20107;-69
2021/12/09 04:37:02;;;;;;;9.50;5.70;;;3.20;99.90;;;;;;4947785;28;20035;-69
2021/12/09 04:39:28;;;;;;;12.13;5.30;;;3.20;99.90;;;;;;4950065;28;20042;-69
2021/12/09 04:41:54;;;;;;;11.10;4.88;;;3.20;99.90;;;;;;4943939;28;20062;-69
2021/12/09 04:44:21;;;;;;;11.30;5.25;;;3.20;99.90;;;;;;4952613;28;20027;-69
2021/12/09 04:46:47;;;;;;;9.90;4.32;;;3.10;99.90;;;;;;4951828;28;20027;-69
2021/12/09 04:49:13;;;;;;;10.40;5.35;;;3.20;99.90;;;;;;4951380;28;20070;-69
2021/12/09 04:51:39;;;;;;;8.98;4.97;;;3.10;99.90;;;;;;4949362;28;20035;-69
2021/12/09 04:54:06;;;;;;;7.97;4.85;;;3.20;99.90;;;;;;4951554;28;20039;-69
2021/12/09 04:56:33;;;;;;;9.55;4.85;;;3.20;99.90;;;;;;4948177;28;20027;-69
2021/12/09 04:58:59;;;;;;;10.55;5.00;;;3.10;99.90;;;;;;4951515;28;20039;-70
2021/12/09 05:01:25;;;;;;;12.93;5.55;;;3.10;99.90;;;;;;4948764;28;20031;-69
2021/12/09 05:03:51;;;;;;;11.07;5.22;;;3.10;99.90;;;;;;4946354;28;20042;-69
2021/12/09 05:06:18;;;;;;;11.85;4.70;;;3.10;99.90;;;;;;4946746;28;20031;-70
2021/12/09 05:08:49;;;;;;;15.88;4.70;;;3.10;99.90;;;;;;4947521;28;20038;-69
2021/12/09 05:11:47;;;;;;;7.70;4.32;;;3.10;99.90;;;;;;4946413;28;20111;-69
2021/12/09 05:14:15;;;;;;;10.70;4.93;;;3.10;99.90;;;;;;4948967;28;20028;-71
2021/12/09 05:16:42;;;;;;;11.63;4.30;;;3.10;99.90;;;;;;4950015;28;20038;-71
2021/12/09 05:19:07;;;;;;;9.32;4.85;;;3.10;99.90;;;;;;4947622;28;20031;-71
2021/12/09 05:21:39;;;;;;;10.93;4.82;;;3.20;99.90;;;;;;4938341;28;20027;-70
2021/12/09 05:24:10;;;;;;;11.90;5.32;;;3.20;99.90;;;;;;4949001;28;20039;-71
2021/12/09 05:26:53;;;;;;;13.32;5.05;;;3.20;99.90;;;;;;4950149;28;20034;-71
2021/12/09 05:29:28;;;;;;;11.63;4.85;;;3.20;99.90;;;;;;4941159;28;20058;-71
2021/12/09 05:32:10;;;;;;;12.13;4.75;;;3.20;99.90;;;;;;4947504;28;20393;-71
2021/12/09 05:34:45;;;;;;;11.15;4.63;;;3.20;99.90;;;;;;4948573;28;20023;-69
2021/12/09 05:37:15;;;;;;;11.88;4.50;;;3.10;99.90;;;;;;4947017;28;20385;-69
2021/12/09 05:39:42;;;;;;;12.40;4.68;;;3.10;99.90;;;;;;4946236;28;20045;-69
2021/12/09 05:42:13;;;;;;;12.15;4.78;;;3.10;99.90;;;;;;4950836;28;20178;-69
2021/12/09 05:44:39;;;;;;;11.30;4.90;;;3.10;99.90;;;;;;4945707;28;20098;-69
2021/12/09 05:47:05;;;;;;;9.45;5.00;;;3.10;99.90;;;;;;4952558;28;20042;-69
2021/12/09 05:49:33;;;;;;;10.18;4.25;;;3.10;99.90;;;;;;4947986;28;20027;-69
2021/12/09 05:51:59;;;;;;;11.65;4.85;;;3.10;99.90;;;;;;4942677;28;20027;-69
2021/12/09 05:54:25;;;;;;;9.30;4.40;;;3.10;99.90;;;;;;4948497;29;20473;-69
2021/12/09 05:56:51;;;;;;;10.15;3.75;;;3.10;99.90;;;;;;4946840;28;20115;-69
2021/12/09 05:59:17;;;;;;;6.35;3.60;;;3.10;99.90;;;;;;4950807;28;20107;-69
2021/12/09 06:01:43;;;;;;;9.95;3.35;;;3.10;99.90;;;;;;4944336;28;20031;-69
2021/12/09 06:04:14;;;;;;;13.45;3.33;;;3.20;99.90;;;;;;4949584;28;20023;-69
2021/12/09 06:06:41;;;;;;;8.85;3.08;;;3.20;99.90;;;;;;4949587;28;20119;-68
2021/12/09 06:09:08;;;;;;;6.93;2.85;;;3.20;99.90;;;;;;4947734;28;20035;-68
2021/12/09 06:11:35;;;;;;;9.32;3.70;;;3.20;99.90;;;;;;4945365;28;20024;-68
2021/12/09 06:14:01;;;;;;;9.65;3.88;;;3.20;99.90;;;;;;4945837;28;20130;-69
2021/12/09 06:16:27;;;;;;;8.70;3.55;;;3.20;99.90;;;;;;4944678;28;20038;-69
2021/12/09 06:18:54;;;;;;;6.38;3.47;;;3.20;99.90;;;;;;4949679;28;20019;-69
2021/12/09 06:21:23;;;;;;;10.75;3.78;;;3.20;99.90;;;;;;4947539;28;20504;-69
2021/12/09 06:23:52;;;;;;;9.68;3.78;;;3.20;99.90;;;;;;4947519;28;20507;-69
2021/12/09 06:26:22;;;;;;;6.38;3.10;;;3.20;99.90;;;;;;4946101;28;20031;-70
2021/12/09 06:28:47;;;;;;;9.30;3.75;;;3.20;99.90;;;;;;4945004;28;20035;-70
2021/12/09 06:31:13;;;;;;;9.25;3.15;;;3.20;99.90;;;;;;4942145;28;20471;-71
2021/12/09 06:33:39;;;;;;;7.45;3.30;;;3.10;99.90;;;;;;4944651;28;20027;-71
2021/12/09 06:36:05;;;;;;;9.73;3.88;;;3.10;99.90;;;;;;4948666;28;20028;-70
2021/12/09 06:38:31;;;;;;;13.27;4.32;;;3.10;99.90;;;;;;4940170;28;20117;-70
2021/12/09 06:40:57;;;;;;;13.05;3.92;;;3.10;99.90;;;;;;4946990;28;20700;-70
2021/12/09 06:43:23;;;;;;;9.35;3.75;;;3.10;99.90;;;;;;4947441;28;20023;-70
2021/12/09 06:45:50;;;;;;;9.85;3.80;;;3.10;99.90;;;;;;4946261;28;20418;-70
2021/12/09 06:48:15;;;;;;;8.95;3.35;;;3.10;99.90;;;;;;4944868;28;20046;-70
2021/12/09 06:50:41;;;;;;;11.55;3.92;;;3.10;99.90;;;;;;4949734;28;20031;-70
2021/12/09 06:53:09;;;;;;;10.90;4.13;;;3.10;99.90;;;;;;4946834;28;20023;-71
2021/12/09 06:55:35;;;;;;;8.38;3.90;;;3.00;99.90;;;;;;4947038;28;20114;-71
2021/12/09 06:58:00;;;;;;;7.53;3.30;;;3.00;99.90;;;;;;4948776;28;20034;-71
2021/12/09 07:00:29;;;;;;;8.95;3.20;;;3.00;99.90;;;;;;4947064;28;20397;-71
2021/12/09 07:02:55;;;;;;;10.30;3.17;;;3.00;99.90;;;;;;4947392;28;20050;-71
2021/12/09 07:05:23;;;;;;;10.13;3.22;;;3.00;99.90;;;;;;4943970;28;20377;-71
2021/12/09 07:07:50;;;;;;;6.82;2.65;;;3.00;99.90;;;;;;4941397;28;20131;-71
2021/12/09 07:10:21;;;;;;;6.35;3.05;;;3.00;99.90;;;;;;4943676;28;20362;-71
2021/12/09 07:12:48;;;;;;;7.97;2.53;;;2.90;99.90;;;;;;4944230;28;20079;-70
2021/12/09 07:15:14;;;;;;;11.23;3.35;;;3.00;99.90;;;;;;4944747;28;20035;-70
2021/12/09 07:17:40;;;;;;;9.85;3.33;;;3.00;99.90;;;;;;4948032;28;20031;-70
2021/12/09 07:20:10;;;;;;;11.68;3.42;;;2.90;99.90;;;;;;4946750;28;20128;-70
2021/12/09 07:22:38;;;;;;;5.15;3.00;;;3.00;99.90;;;;;;4949356;28;20034;-70
2021/12/09 07:25:08;;;;;;;9.65;2.50;;;2.90;99.90;;;;;;4951834;28;20027;-70
2021/12/09 07:27:33;;;;;;;5.43;2.53;;;2.90;99.90;;;;;;4950950;28;20528;-70
2021/12/09 07:30:05;;;;;;;9.27;2.75;;;3.00;99.90;;;;;;4946334;28;20107;-70
2021/12/09 07:32:32;;;;;;;11.43;3.05;;;3.00;99.90;;;;;;4953072;28;20024;-70
2021/12/09 07:34:58;;;;;;;8.65;3.10;;;3.00;99.90;;;;;;4949292;28;20055;-70
2021/12/09 07:37:23;;;;;;;11.80;3.45;;;3.00;99.90;;;;;;4945210;28;20058;-70
2021/12/09 07:39:49;;;;;;;10.32;2.85;;;3.00;99.90;;;;;;4943757;28;20102;-70
2021/12/09 07:42:17;;;;;;;5.68;2.58;;;3.00;99.90;;;;;;4949395;28;20667;-70
2021/12/09 07:44:49;;;;;;;7.00;2.63;;;3.00;99.90;;;;;;4944659;28;20560;-70
2021/12/09 07:47:15;;;;;;;7.63;2.40;;;3.00;99.90;;;;;;4951266;28;20035;-71
2021/12/09 07:49:40;;;;;;;8.65;2.72;;;3.00;99.90;;;;;;4952464;28;20031;-71
2021/12/09 07:52:06;;;;;;;7.15;2.22;;;3.10;99.90;;;;;;4948060;28;20374;-71
2021/12/09 07:54:32;;;;;;;7.60;2.45;;;3.10;99.90;;;;;;4947701;28;20118;-69
2021/12/09 07:56:58;;;;;;;5.93;2.53;;;3.10;99.90;;;;;;4952161;28;20538;-69
2021/12/09 07:59:29;;;;;;;7.43;2.10;;;3.10;99.90;;;;;;4946990;28;20023;-70
2021/12/09 08:01:58;;;;;;;6.28;2.25;;;3.10;99.90;;;;;;4962043;28;20035;-70
2021/12/09 08:04:24;;;;;;;9.32;2.50;;;3.20;99.90;;;;;;4948565;28;20024;-70
2021/12/09 08:06:50;;;;;;;4.80;2.08;;;3.20;99.90;;;;;;4944665;28;20038;-71
2021/12/09 08:09:15;;;;;;;9.70;1.95;;;3.20;99.90;;;;;;4939871;28;20035;-70
2021/12/09 08:11:43;;;;;;;5.30;2.67;;;3.20;99.90;;;;;;4945681;28;20031;-71
2021/12/09 08:14:15;;;;;;;6.75;2.67;;;3.30;99.90;;;;;;4948995;28;20032;-69
2021/12/09 08:16:41;;;;;;;4.35;2.45;;;3.30;99.90;;;;;;4961691;28;20027;-70
2021/12/09 08:19:13;;;;;;;9.27;2.65;;;3.30;99.90;;;;;;4946647;28;20504;-70
2021/12/09 08:21:40;;;;;;;5.32;2.05;;;3.30;99.90;;;;;;4945300;28;20400;-69
2021/12/09 08:24:08;;;;;;;8.50;2.47;;;3.30;99.90;;;;;;4948972;28;20042;-70
2021/12/09 08:26:35;;;;;;;10.35;3.38;;;3.30;99.90;;;;;;4944993;28;20027;-70
2021/12/09 08:29:01;;;;;;;8.00;2.22;;;3.30;99.90;;;;;;4946330;28;20035;-69
2021/12/09 08:31:29;;;;;;;6.57;1.95;;;3.30;99.90;;;;;;4946642;28;20104;-69
2021/12/09 08:33:55;;;;;;;4.22;1.48;;;3.30;99.90;;;;;;4943683;28;20044;-69
2021/12/09 08:36:21;;;;;;;6.68;1.60;;;3.40;99.90;;;;;;4946972;28;20094;-69
2021/12/09 08:38:47;;;;;;;6.00;1.60;;;3.40;99.90;;;;;;4950013;28;20043;-69
2021/12/09 08:41:15;;;;;;;5.25;2.13;;;3.40;99.90;;;;;;4944606;28;20050;-70
2021/12/09 08:43:41;;;;;;;6.07;1.75;;;3.40;99.90;;;;;;4947295;28;20431;-70
2021/12/09 08:46:06;;;;;;;5.82;2.38;;;3.40;99.90;;;;;;4945584;28;20027;-70
2021/12/09 08:48:33;;;;;;;3.50;1.90;;;3.50;99.90;;;;;;4950119;28;20508;-69
2021/12/09 08:50:58;;;;;;;5.32;1.90;;;3.50;99.90;;;;;;5004429;23;20411;-67
2021/12/09 08:53:25;;;;;;;3.80;2.33;;;3.50;99.90;;;;;;4984079;28;20022;-68
2021/12/09 08:55:52;;;;;;;4.85;1.77;;;3.50;99.90;;;;;;4988940;28;20134;-68
2021/12/09 08:58:18;;;;;;;4.30;1.83;;;3.50;99.90;;;;;;4989696;28;20038;-65
2021/12/09 09:00:45;;;;;;;5.05;1.48;;;3.60;99.90;;;;;;4981260;28;25906;-68
2021/12/09 09:03:11;;;;;;;5.20;2.20;;;3.60;99.90;;;;;;4978846;28;20089;-68
2021/12/09 09:05:38;;;;;;;4.05;1.67;;;3.60;99.90;;;;;;4981136;28;20743;-68
2021/12/09 09:08:06;;;;;;;3.72;1.70;;;3.70;99.90;;;;;;4982401;28;20088;-68
2021/12/09 09:10:34;;;;;;;4.00;1.85;;;3.70;99.90;;;;;;4978875;28;20130;-67
2021/12/09 09:13:00;;;;;;;7.47;1.95;;;3.80;99.90;;;;;;4983702;28;20131;-68
2021/12/09 09:15:28;;;;;;;5.00;1.83;;;3.80;99.90;;;;;;4980087;28;20102;-68
2021/12/09 09:17:54;;;;;;;5.60;1.27;;;3.80;99.90;;;;;;4979308;28;20037;-68
2021/12/09 09:20:23;;;;;;;7.25;1.60;;;3.90;99.90;;;;;;4995114;28;20561;-68
2021/12/09 09:22:49;;;;;;;9.77;1.60;;;3.90;99.90;;;;;;4974936;28;20029;-66
2021/12/09 09:25:20;;;;;;;3.15;1.80;;;3.90;99.90;;;;;;4976970;28;20491;-68
2021/12/09 09:27:47;;;;;;;5.78;2.25;;;4.00;99.90;;;;;;4981436;28;20033;-69
2021/12/09 09:30:18;;;;;;;2.95;1.42;;;4.00;99.90;;;;;;4985409;28;20875;-68
2021/12/09 09:32:49;;;;;;;4.55;1.83;;;4.00;99.90;;;;;;4977008;28;20019;-68
2021/12/09 09:35:16;;;;;;;2.00;1.20;;;4.00;99.90;;;;;;5002344;28;20030;-67
2021/12/09 09:37:43;;;;;;;4.97;1.50;;;4.10;99.90;;;;;;4980145;28;20510;-67
2021/12/09 09:40:13;;;;;;;7.10;1.38;;;4.00;99.90;;;;;;4981525;28;20037;-67
2021/12/09 09:45:07;;;;;;;4.53;1.50;;;4.00;99.90;;;;;;4974231;28;20165;-68
2021/12/09 09:47:33;;;;;;;6.18;1.63;;;4.00;99.90;;;;;;4977584;28;20059;-68
2021/12/09 09:49:59;;;;;;;2.28;1.27;;;4.10;99.90;;;;;;4986263;28;20063;-68
2021/12/09 09:52:26;;;;;;;5.05;1.67;;;4.20;99.90;;;;;;4982372;28;20183;-70
2021/12/09 09:54:54;;;;;;;5.20;1.60;;;4.30;99.90;;;;;;4977252;28;20534;-68
2021/12/09 09:57:20;;;;;;;3.22;1.35;;;4.30;99.90;;;;;;4976858;28;20023;-68
2021/12/09 09:59:46;;;;;;;4.55;1.80;;;4.30;99.90;;;;;;4975970;28;20040;-68
2021/12/09 10:02:13;;;;;;;3.50;2.13;;;4.30;99.90;;;;;;4972551;28;20027;-67
2021/12/09 10:04:48;;;;;;;4.47;1.90;;;4.40;99.90;;;;;;4980378;28;20041;-67
2021/12/09 10:07:18;;;;;;;4.20;1.35;;;4.40;99.90;;;;;;4975981;28;20033;-67
2021/12/09 10:09:45;;;;;;;3.78;1.65;;;4.40;99.90;;;;;;4975740;28;20388;-68
2021/12/09 10:12:12;;;;;;;4.80;2.13;;;4.40;99.90;;;;;;4972585;28;20031;-68
2021/12/09 10:14:38;;;;;;;5.10;2.30;;;4.40;99.90;;;;;;4980362;28;20049;-66
2021/12/09 10:17:05;;;;;;;6.63;1.90;;;4.50;99.90;;;;;;4977713;28;20033;-66
2021/12/09 10:19:52;;;;;;;4.88;1.90;;;4.50;99.90;;;;;;4983106;28;20023;-67
2021/12/09 10:22:21;;;;;;;8.02;3.13;;;4.60;99.90;;;;;;4977831;28;20077;-67
2021/12/09 10:24:49;;;;;;;6.60;2.72;;;4.60;99.90;;;;;;4973344;28;20522;-69
2021/12/09 10:27:45;;;;;;;6.70;2.40;;;4.60;99.90;;;;;;4978973;28;20019;-68
2021/12/09 10:30:17;;;;;;;8.20;2.78;;;4.60;99.90;;;;;;4971998;28;20045;-67
2021/12/09 10:32:44;;;;;;;5.47;2.42;;;4.60;99.90;;;;;;4966750;28;20035;-67
2021/12/09 10:35:14;;;;;;;6.90;2.47;;;4.60;99.90;;;;;;4976918;28;20084;-69
2021/12/09 10:37:43;;;;;;;7.20;3.03;;;4.70;99.90;;;;;;4982381;28;20157;-67
2021/12/09 10:40:13;;;;;;;7.38;2.53;;;4.80;99.90;;;;;;4974862;28;20023;-67
2021/12/09 10:42:38;;;;;;;5.05;2.63;;;4.90;99.90;;;;;;4980864;28;20035;-66
2021/12/09 10:45:06;;;;;;;9.32;2.42;;;4.90;99.90;;;;;;4972563;28;20042;-68
2021/12/09 10:50:46;;;;;;;5.35;2.17;;;5.00;99.90;;;;;;4974773;28;20573;-67
2021/12/09 10:53:35;;;;;;;;;;;4.90;99.90;;;;;;4980206;28;20022;-66
2021/12/09 10:56:10;;;;;;;5.55;2.80;;;4.90;99.90;;;;;;4976914;28;19918;-68
2021/12/09 10:58:41;;;;;;;4.38;2.42;;;4.90;99.90;;;;;;4980929;28;20438;-68
2021/12/09 11:01:10;;;;;;;4.90;2.85;;;4.90;99.90;;;;;;4980700;28;20035;-66
2021/12/09 11:03:44;;;;;;;4.43;2.35;;;4.90;99.90;;;;;;4977078;28;20383;-67
2021/12/09 11:06:20;;;;;;;6.28;3.00;;;4.90;99.90;;;;;;4995932;28;20049;-65
2021/12/09 11:08:50;;;;;;;6.57;2.53;;;4.90;99.90;;;;;;4976416;28;20035;-67
2021/12/09 11:11:34;;;;;;;6.47;2.58;;;4.90;99.90;;;;;;4996576;28;20777;-66
2021/12/09 11:14:02;;;;;;;6.72;2.85;;;4.80;99.90;;;;;;4976852;28;20022;-67
2021/12/09 11:16:31;;;;;;;9.10;3.30;;;4.80;99.90;;;;;;4985090;28;20526;-66
2021/12/09 11:19:30;;;;;;;4.88;2.38;;;4.80;99.90;;;;;;4972164;28;20088;-68
2021/12/09 11:22:00;;;;;;;6.78;2.47;;;4.70;99.90;;;;;;4974016;28;21314;-67
2021/12/09 11:24:32;;;;;;;7.60;2.95;;;4.70;99.90;;;;;;4986270;28;20058;-67
2021/12/09 11:27:02;;;;;;;5.60;2.80;;;4.70;99.90;;;;;;4971243;28;20026;-66
2021/12/09 11:29:30;;;;;;;7.97;2.40;;;4.80;99.90;;;;;;4972080;28;20044;-68
2021/12/09 11:34:59;;;;;;;5.80;2.78;;;4.80;99.90;;;;;;4970637;28;20073;-68
2021/12/09 11:37:41;;;;;;;5.50;2.97;;;4.80;99.90;;;;;;4975799;28;20514;-67
2021/12/09 11:40:10;;;;;;;3.75;1.80;;;4.90;99.90;;;;;;4969507;28;20054;-68
2021/12/09 11:42:47;;;;;;;12.38;3.20;;;4.90;99.90;;;;;;4981048;28;20061;-67
2021/12/09 11:45:18;;;;;;;5.95;2.67;;;4.90;99.90;;;;;;4968825;28;20088;-68
2021/12/09 11:47:48;;;;;;;9.43;3.10;;;4.90;99.90;;;;;;4979236;28;20062;-67
2021/12/09 11:50:23;;;;;;;6.13;2.95;;;4.90;99.90;;;;;;4972803;28;20022;-67
2021/12/09 11:52:52;;;;;;;5.60;3.10;;;5.00;99.90;;;;;;4970907;28;20030;-68
2021/12/09 11:55:22;;;;;;;8.45;3.10;;;5.10;99.90;;;;;;4988386;28;20057;-68
2021/12/09 12:12:31;;;;;;;9.35;3.05;;;5.30;99.90;;;;;;4978532;28;20077;-66
2021/12/09 12:24:24;;;;;;;6.10;2.28;;;5.30;99.90;;;;;;4970022;28;20451;-69
2021/12/09 12:27:04;;;;;;;7.05;2.58;;;5.30;99.90;;;;;;4964742;28;20023;-67
2021/12/09 12:30:20;;;;;;;7.45;3.05;;;5.40;99.90;;;;;;4972698;28;20072;-68
2021/12/09 12:41:06;;;;;;;5.15;1.80;;;5.50;99.90;;;;;;4967493;28;20755;-67
2021/12/09 12:43:58;;;;;;;4.78;1.52;;;5.40;99.90;;;;;;4967044;28;20054;-67
2021/12/09 12:47:07;;;;;;;4.43;1.75;;;5.40;99.90;;;;;;4978514;28;20026;-68
2021/12/09 12:49:36;;;;;;;5.28;1.90;;;5.20;99.90;;;;;;4974204;28;27805;-66
2021/12/09 12:52:14;;;;;;;3.58;1.45;;;5.10;99.90;;;;;;4970923;28;20092;-66
2021/12/09 12:54:55;;;;;;;4.65;1.65;;;5.10;99.90;;;;;;4974757;28;20483;-68
2021/12/09 12:57:48;;;;;;;5.13;2.45;;;5.00;99.90;;;;;;4972346;28;20022;-68
2021/12/09 13:00:17;;;;;;;7.30;2.15;;;5.00;99.90;;;;;;4975109;28;20023;-69
2021/12/09 13:05:45;;;;;;;7.07;1.80;;;4.90;99.90;;;;;;4973483;28;20483;-68
2021/12/09 13:19:07;;;;;;;5.43;1.38;;;4.80;99.90;;;;;;4980453;28;20376;-67
2021/12/09 13:22:01;;;;;;;8.35;1.80;;;4.90;99.90;;;;;;4983197;28;20019;-68
2021/12/09 13:27:37;;;;;;;5.68;1.33;;;4.90;99.90;;;;;;4982057;28;20480;-68
2021/12/09 13:49:38;;;;;;;6.55;2.20;;;4.70;99.90;;;;;;4968992;28;20502;-67
2021/12/09 13:54:07;;;;;;;5.38;1.90;;;4.60;99.90;;;;;;4972280;28;20038;-67
2021/12/09 13:54:54;;;;;;;5.82;2.17;;;4.60;99.90;;;;;;4978672;28;20069;-66
2021/12/09 13:57:33;;;;;;;5.18;2.08;;;4.50;99.90;;;;;;4970614;28;20018;-66
2021/12/09 14:00:00;;;;;;;5.53;1.83;;;4.50;99.90;;;;;;4968631;28;20026;-66
2021/12/09 14:02:28;;;;;;;6.50;1.50;;;4.50;99.90;;;;;;4969662;28;20026;-68
2021/12/09 14:04:56;;;;;;;3.00;1.67;;;4.50;99.90;;;;;;4972822;28;27302;-67
2021/12/09 14:07:32;;;;;;;7.40;1.67;;;4.60;99.90;;;;;;4967843;28;20027;-66
2021/12/09 14:10:08;;;;;;;8.32;2.25;;;4.60;99.90;;;;;;4972439;28;20022;-68
2021/12/09 14:12:46;;;;;;;13.23;2.85;;;4.60;99.90;;;;;;4974560;28;20033;-69
2021/12/09 14:15:17;;;;;;;4.93;1.60;;;4.60;99.90;;;;;;4974010;28;20031;-70
2021/12/09 14:17:44;;;;;;;7.22;1.75;;;4.60;99.90;;;;;;4971109;28;20027;-68
2021/12/09 14:20:20;;;;;;;6.82;1.63;;;4.60;99.90;;;;;;4969274;28;20035;-68
2021/12/09 14:22:50;;;;;;;10.32;1.60;;;4.60;99.90;;;;;;4970519;28;20041;-69